Wednesday, December 19, 2018, 11:30 AM EST
Back to Local

KIAG, Niagara Falls International Airport

Location: Niagara Falls, NY, United States Lat: 43.117
Local Time: 11:30 AM EST (16:30 GMT) Lon: -78.933
Time Zone: US/Eastern Elev: 583 ft

Show me the last for .
Show Decoded

2018-12-19 10:53 METAR KIAG 191553Z 21010KT 10SM CLR 03/M02 A3002 RMK AO2 SLP182 T00281017 =
2018-12-19 09:53 METAR KIAG 191453Z 21009KT 10SM CLR 02/M03 A3004 RMK AO2 SLP189 T00171028 53005
                 =
2018-12-19 08:53 METAR KIAG 191353Z 20011KT 10SM CLR M01/M04 A3002 RMK AO2 SLP184 T10061039 =
2018-12-19 07:53 METAR KIAG 191253Z 19011KT 10SM CLR M01/M04 A3002 RMK AO2 SLP182 T10111039 =
2018-12-19 06:53 METAR KIAG 191153Z 20010KT 10SM CLR M02/M04 A3003 RMK AO2 SLP185 T10171039 11011
                 21050 58008 $ =
2018-12-19 05:53 METAR KIAG 191053Z AUTO 19008KT 10SM CLR M02/M04 A3004 RMK AO2 SLP190 T10171039
                 $ =
2018-12-19 04:53 METAR KIAG 190953Z AUTO 20010KT 10SM CLR M01/M04 A3004 RMK AO2 SLP187 T10111039
                 $ =
2018-12-19 03:53 METAR KIAG 190853Z AUTO 21009KT 10SM CLR M02/M04 A3005 RMK AO2 SLP192 T10171039
                 58011 $ =
2018-12-19 02:53 METAR KIAG 190753Z AUTO 20006KT 10SM CLR M03/M05 A3007 RMK AO2 SLP199 T10281050
                 $ =
2018-12-19 01:53 METAR KIAG 190653Z AUTO 20004KT 10SM CLR M04/M06 A3007 RMK AO2 SLP201 T10441061
                 $ =
2018-12-19 00:53 METAR KIAG 190553Z AUTO 19004KT 10SM FEW022 M04/M07 A3008 RMK AO2 SLP205
                 T10441067 11039 21061 58018 $ =
2018-12-19 00:18 METAR KIAG 190518Z AUTO 00000KT 10SM SCT022 M06/M08 A3010 RMK AO2 T10611078 $ =
2018-12-18 23:53 METAR KIAG 190453Z AUTO 20004KT 10SM BKN022 M06/M08 A3011 RMK AO2 SLP214
                 T10611078 400001061 $ =
2018-12-18 22:53 METAR KIAG 190353Z 00000KT 10SM CLR M06/M08 A3013 RMK AO2 SLP222 T10611083 $ =
2018-12-18 21:53 METAR KIAG 190253Z 00000KT 10SM CLR M06/M08 A3014 RMK AO2 SLP224 T10561078 56012
                 $ =
2018-12-18 20:53 METAR KIAG 190153Z 00000KT 10SM CLR M04/M07 A3015 RMK AO2 SLP227 T10391072 =
2018-12-18 19:53 METAR KIAG 190053Z 19003KT 10SM CLR M04/M07 A3016 RMK AO2 SLP231 T10441072 =
2018-12-18 18:53 METAR KIAG 182353Z 21004KT 10SM CLR M04/M07 A3017 RMK AO2 SLP235 T10391072 11022
                 21039 58005 =
2018-12-18 17:53 METAR KIAG 182253Z 21006KT 10SM CLR M03/M07 A3018 RMK AO2 SLP237 T10331072 =
2018-12-18 16:53 METAR KIAG 182153Z 00000KT 10SM CLR M03/M08 A3019 RMK AO2 SLP239 T10281083 =
2018-12-18 15:53 METAR KIAG 182053Z COR 33004KT 10SM CLR M02/M08 A3019 RMK AO2 SLP239 T10221083
                 56006 =
2018-12-18 14:53 METAR KIAG 181953Z 27005KT 10SM CLR M02/M09 A3019 RMK AO2 SLP239 T10221089 =
2018-12-18 13:53 METAR KIAG 181853Z 32006KT 10SM CLR M03/M09 A3019 RMK AO2 SLP238 T10281089 =
2018-12-18 12:53 METAR KIAG 181753Z 30006KT 10SM FEW025 M03/M09 A3020 RMK AO2 SLP244 T10331094
                 11028 21050 58011 =
2018-12-18 11:53 METAR KIAG 181653Z COR 31008KT 10SM SCT030 M03/M09 A3022 RMK AO2 SLP249
                 T10331094 =
2018-12-18 11:36 METAR KIAG 181636Z 35007KT 10SM FEW029 M04/M10 A3022 RMK AO2 T10391100 $ =

Support USWX by starting your Amazon purchase here.